sensor_id;sensor_type;location;lat;lon;timestamp;pressure;altitude;pressure_sealevel;temperature;humidity
29359;BME280;16347;53.232;6.556;2023-05-25T00:01:28;102659.56;;;15.81;56.52
29359;BME280;16347;53.232;6.556;2023-05-25T00:03:56;102657.22;;;15.86;56.38
29359;BME280;16347;53.232;6.556;2023-05-25T00:06:27;102660.97;;;15.85;56.43
29359;BME280;16347;53.232;6.556;2023-05-25T00:08:56;102658.53;;;15.82;56.32
29359;BME280;16347;53.232;6.556;2023-05-25T00:11:24;102660.56;;;15.80;56.54
29359;BME280;16347;53.232;6.556;2023-05-25T00:13:52;102657.84;;;15.80;56.40
29359;BME280;16347;53.232;6.556;2023-05-25T00:16:20;102654.78;;;15.83;56.47
29359;BME280;16347;53.232;6.556;2023-05-25T00:18:48;102650.31;;;15.82;56.39
29359;BME280;16347;53.232;6.556;2023-05-25T00:21:16;102644.13;;;15.80;56.40
29359;BME280;16347;53.232;6.556;2023-05-25T00:23:45;102654.09;;;15.81;56.47
29359;BME280;16347;53.232;6.556;2023-05-25T00:26:13;102646.28;;;15.76;56.55
29359;BME280;16347;53.232;6.556;2023-05-25T00:28:40;102651.91;;;15.75;56.08
29359;BME280;16347;53.232;6.556;2023-05-25T00:31:08;102659.00;;;15.77;56.18
29359;BME280;16347;53.232;6.556;2023-05-25T00:33:37;102661.78;;;15.68;56.04
29359;BME280;16347;53.232;6.556;2023-05-25T00:36:05;102666.38;;;15.67;56.11
29359;BME280;16347;53.232;6.556;2023-05-25T00:38:35;102662.59;;;15.68;56.01
29359;BME280;16347;53.232;6.556;2023-05-25T00:41:05;102658.00;;;15.69;56.14
29359;BME280;16347;53.232;6.556;2023-05-25T00:43:34;102667.25;;;15.68;56.07
29359;BME280;16347;53.232;6.556;2023-05-25T00:46:02;102656.56;;;15.65;56.36
29359;BME280;16347;53.232;6.556;2023-05-25T00:48:30;102656.56;;;15.65;56.06
29359;BME280;16347;53.232;6.556;2023-05-25T00:50:58;102663.38;;;15.61;56.18
29359;BME280;16347;53.232;6.556;2023-05-25T00:53:27;102663.38;;;15.61;56.11
29359;BME280;16347;53.232;6.556;2023-05-25T00:56:01;102658.19;;;15.48;56.33
29359;BME280;16347;53.232;6.556;2023-05-25T00:58:33;102656.31;;;15.49;56.80
29359;BME280;16347;53.232;6.556;2023-05-25T01:01:03;102659.19;;;15.37;56.52
29359;BME280;16347;53.232;6.556;2023-05-25T01:03:38;102656.72;;;15.44;56.66
29359;BME280;16347;53.232;6.556;2023-05-25T01:06:13;102645.91;;;15.43;56.73
29359;BME280;16347;53.232;6.556;2023-05-25T01:08:48;102644.59;;;15.47;56.39
29359;BME280;16347;53.232;6.556;2023-05-25T01:11:20;102650.09;;;15.47;56.34
29359;BME280;16347;53.232;6.556;2023-05-25T01:13:53;102657.03;;;15.41;56.37
29359;BME280;16347;53.232;6.556;2023-05-25T01:16:22;102661.34;;;15.44;56.54
29359;BME280;16347;53.232;6.556;2023-05-25T01:18:51;102671.88;;;15.38;56.50
29359;BME280;16347;53.232;6.556;2023-05-25T01:21:22;102661.47;;;15.42;56.81
29359;BME280;16347;53.232;6.556;2023-05-25T01:24:00;102662.22;;;15.44;56.64
29359;BME280;16347;53.232;6.556;2023-05-25T01:26:34;102665.09;;;15.43;56.55
29359;BME280;16347;53.232;6.556;2023-05-25T01:29:05;102666.09;;;15.41;56.76
29359;BME280;16347;53.232;6.556;2023-05-25T01:31:34;102662.34;;;15.43;56.72
29359;BME280;16347;53.232;6.556;2023-05-25T01:34:04;102660.78;;;15.40;56.85
29359;BME280;16347;53.232;6.556;2023-05-25T01:36:33;102668.41;;;15.36;56.91
29359;BME280;16347;53.232;6.556;2023-05-25T01:39:04;102670.72;;;15.41;57.03
29359;BME280;16347;53.232;6.556;2023-05-25T01:41:32;102668.00;;;15.41;56.88
29359;BME280;16347;53.232;6.556;2023-05-25T01:44:00;102678.78;;;15.43;56.83
29359;BME280;16347;53.232;6.556;2023-05-25T01:46:32;102683.56;;;15.40;57.19
29359;BME280;16347;53.232;6.556;2023-05-25T01:49:11;102680.25;;;15.47;56.89
29359;BME280;16347;53.232;6.556;2023-05-25T01:51:46;102679.66;;;15.43;57.04
29359;BME280;16347;53.232;6.556;2023-05-25T01:54:27;102677.78;;;15.44;56.97
29359;BME280;16347;53.232;6.556;2023-05-25T01:56:57;102676.91;;;15.43;56.97
29359;BME280;16347;53.232;6.556;2023-05-25T01:59:27;102683.69;;;15.39;57.12
29359;BME280;16347;53.232;6.556;2023-05-25T02:01:58;102680.69;;;15.32;57.34
29359;BME280;16347;53.232;6.556;2023-05-25T02:04:28;102687.44;;;15.38;57.40
29359;BME280;16347;53.232;6.556;2023-05-25T02:06:58;102682.25;;;15.35;57.27
29359;BME280;16347;53.232;6.556;2023-05-25T02:09:26;102686.88;;;15.34;57.27
29359;BME280;16347;53.232;6.556;2023-05-25T02:11:54;102682.13;;;15.36;57.54
29359;BME280;16347;53.232;6.556;2023-05-25T02:14:22;102689.78;;;15.33;57.80
29359;BME280;16347;53.232;6.556;2023-05-25T02:16:50;102691.22;;;15.37;57.60
29359;BME280;16347;53.232;6.556;2023-05-25T02:19:18;102688.78;;;15.34;57.50
29359;BME280;16347;53.232;6.556;2023-05-25T02:21:46;102682.13;;;15.36;57.29
29359;BME280;16347;53.232;6.556;2023-05-25T02:24:15;102678.22;;;15.29;57.60
29359;BME280;16347;53.232;6.556;2023-05-25T02:26:44;102682.13;;;15.27;57.69
29359;BME280;16347;53.232;6.556;2023-05-25T02:29:12;102677.78;;;15.24;57.75
29359;BME280;16347;53.232;6.556;2023-05-25T02:31:40;102674.91;;;15.26;57.66
29359;BME280;16347;53.232;6.556;2023-05-25T02:34:08;102668.25;;;15.28;57.78
29359;BME280;16347;53.232;6.556;2023-05-25T02:36:37;102668.13;;;15.30;57.73
29359;BME280;16347;53.232;6.556;2023-05-25T02:39:05;102666.97;;;15.32;57.48
29359;BME280;16347;53.232;6.556;2023-05-25T02:41:34;102671.47;;;15.24;57.37
29359;BME280;16347;53.232;6.556;2023-05-25T02:44:02;102676.78;;;15.25;57.31
29359;BME280;16347;53.232;6.556;2023-05-25T02:46:31;102680.81;;;15.21;57.19
29359;BME280;16347;53.232;6.556;2023-05-25T02:48:59;102678.06;;;15.21;57.22
29359;BME280;16347;53.232;6.556;2023-05-25T02:51:27;102678.94;;;15.22;57.33
29359;BME280;16347;53.232;6.556;2023-05-25T02:53:57;102682.69;;;15.11;57.23
29359;BME280;16347;53.232;6.556;2023-05-25T02:56:26;102683.28;;;15.15;57.21
29359;BME280;16347;53.232;6.556;2023-05-25T02:58:57;102681.69;;;15.12;57.85
29359;BME280;16347;53.232;6.556;2023-05-25T03:01:29;102700.56;;;15.15;57.75
29359;BME280;16347;53.232;6.556;2023-05-25T03:03:57;102689.78;;;15.14;57.98
29359;BME280;16347;53.232;6.556;2023-05-25T03:06:27;102697.13;;;15.13;58.41
29359;BME280;16347;53.232;6.556;2023-05-25T03:09:00;102695.69;;;15.09;58.73
29359;BME280;16347;53.232;6.556;2023-05-25T03:11:30;102704.31;;;15.14;58.25
29359;BME280;16347;53.232;6.556;2023-05-25T03:14:00;102700.88;;;15.12;58.13
29359;BME280;16347;53.232;6.556;2023-05-25T03:16:30;102709.09;;;15.12;58.60
29359;BME280;16347;53.232;6.556;2023-05-25T03:19:02;102706.50;;;15.11;58.58
29359;BME280;16347;53.232;6.556;2023-05-25T03:21:33;102707.63;;;15.08;58.91
29359;BME280;16347;53.232;6.556;2023-05-25T03:24:01;102706.06;;;15.06;58.74
29359;BME280;16347;53.232;6.556;2023-05-25T03:26:29;102708.38;;;15.10;59.15
29359;BME280;16347;53.232;6.556;2023-05-25T03:29:00;102711.41;;;15.07;59.10
29359;BME280;16347;53.232;6.556;2023-05-25T03:31:28;102711.13;;;15.10;59.03
29359;BME280;16347;53.232;6.556;2023-05-25T03:33:56;102712.13;;;15.09;59.19
29359;BME280;16347;53.232;6.556;2023-05-25T03:36:25;102722.22;;;15.09;59.22
29359;BME280;16347;53.232;6.556;2023-05-25T03:38:54;102725.94;;;15.08;59.48
29359;BME280;16347;53.232;6.556;2023-05-25T03:41:22;102722.38;;;15.07;59.43
29359;BME280;16347;53.232;6.556;2023-05-25T03:43:50;102726.69;;;15.10;59.55
29359;BME280;16347;53.232;6.556;2023-05-25T03:46:20;102723.06;;;15.09;59.49
29359;BME280;16347;53.232;6.556;2023-05-25T03:48:48;102725.81;;;15.09;59.93
29359;BME280;16347;53.232;6.556;2023-05-25T03:51:16;102727.69;;;15.09;60.01
29359;BME280;16347;53.232;6.556;2023-05-25T03:53:44;102730.31;;;15.10;59.88
29359;BME280;16347;53.232;6.556;2023-05-25T03:56:12;102729.56;;;15.08;60.20
29359;BME280;16347;53.232;6.556;2023-05-25T03:58:40;102737.34;;;15.13;60.05
29359;BME280;16347;53.232;6.556;2023-05-25T04:01:08;102732.16;;;15.10;59.80
29359;BME280;16347;53.232;6.556;2023-05-25T04:03:39;102740.22;;;15.11;60.05
29359;BME280;16347;53.232;6.556;2023-05-25T04:06:07;102736.78;;;15.09;60.00
29359;BME280;16347;53.232;6.556;2023-05-25T04:08:35;102748.16;;;15.14;60.02
29359;BME280;16347;53.232;6.556;2023-05-25T04:11:04;102746.28;;;15.15;60.07
29359;BME280;16347;53.232;6.556;2023-05-25T04:13:31;102741.56;;;15.17;60.15
29359;BME280;16347;53.232;6.556;2023-05-25T04:16:03;102741.38;;;15.18;60.15
29359;BME280;16347;53.232;6.556;2023-05-25T04:18:32;102738.94;;;15.15;60.29
29359;BME280;16347;53.232;6.556;2023-05-25T04:21:01;102738.34;;;15.02;60.41
29359;BME280;16347;53.232;6.556;2023-05-25T04:23:29;102743.56;;;15.15;60.27
29359;BME280;16347;53.232;6.556;2023-05-25T04:26:01;102745.16;;;15.17;60.34
29359;BME280;16347;53.232;6.556;2023-05-25T04:28:31;102743.41;;;15.16;60.07
29359;BME280;16347;53.232;6.556;2023-05-25T04:31:10;102737.78;;;15.18;60.17
29359;BME280;16347;53.232;6.556;2023-05-25T04:33:48;102743.41;;;15.16;60.70
29359;BME280;16347;53.232;6.556;2023-05-25T04:36:24;102737.78;;;15.18;60.61
29359;BME280;16347;53.232;6.556;2023-05-25T04:38:53;102735.78;;;15.20;60.72
29359;BME280;16347;53.232;6.556;2023-05-25T04:41:22;102743.84;;;15.21;60.71
29359;BME280;16347;53.232;6.556;2023-05-25T04:43:53;102737.53;;;15.21;60.66
29359;BME280;16347;53.232;6.556;2023-05-25T04:46:38;102737.25;;;15.24;61.12
29359;BME280;16347;53.232;6.556;2023-05-25T04:49:11;102736.38;;;15.23;61.21
29359;BME280;16347;53.232;6.556;2023-05-25T04:51:41;102743.56;;;15.24;61.18
29359;BME280;16347;53.232;6.556;2023-05-25T04:54:09;102748.78;;;15.27;61.36
29359;BME280;16347;53.232;6.556;2023-05-25T04:56:38;102739.22;;;15.31;61.28
29359;BME280;16347;53.232;6.556;2023-05-25T04:59:06;102739.53;;;15.28;61.63
29359;BME280;16347;53.232;6.556;2023-05-25T05:01:34;102739.97;;;15.24;61.49
29359;BME280;16347;53.232;6.556;2023-05-25T05:04:08;102746.75;;;15.29;61.86
29359;BME280;16347;53.232;6.556;2023-05-25T05:06:38;102740.41;;;15.38;62.85
29359;BME280;16347;53.232;6.556;2023-05-25T05:09:08;102744.16;;;15.37;62.50
29359;BME280;16347;53.232;6.556;2023-05-25T05:11:37;102750.34;;;15.39;62.05
29359;BME280;16347;53.232;6.556;2023-05-25T05:14:06;102755.41;;;15.44;62.17
29359;BME280;16347;53.232;6.556;2023-05-25T05:16:34;102754.25;;;15.47;62.22
29359;BME280;16347;53.232;6.556;2023-05-25T05:19:03;102752.38;;;15.47;62.15
29359;BME280;16347;53.232;6.556;2023-05-25T05:21:31;102755.44;;;15.54;62.08
29359;BME280;16347;53.232;6.556;2023-05-25T05:24:02;102765.38;;;15.55;62.16
29359;BME280;16347;53.232;6.556;2023-05-25T05:26:32;102765.13;;;15.58;62.20
29359;BME280;16347;53.232;6.556;2023-05-25T05:29:22;102775.94;;;15.59;61.99
29359;BME280;16347;53.232;6.556;2023-05-25T05:31:51;102764.84;;;15.61;62.38
29359;BME280;16347;53.232;6.556;2023-05-25T05:34:20;102771.72;;;15.65;62.32
29359;BME280;16347;53.232;6.556;2023-05-25T05:36:49;102779.41;;;15.71;62.47
29359;BME280;16347;53.232;6.556;2023-05-25T05:39:25;102778.09;;;15.65;62.64
29359;BME280;16347;53.232;6.556;2023-05-25T05:41:55;102788.34;;;15.63;63.17
29359;BME280;16347;53.232;6.556;2023-05-25T05:44:24;102792.38;;;15.69;63.08
29359;BME280;16347;53.232;6.556;2023-05-25T05:46:55;102787.47;;;15.72;63.35
29359;BME280;16347;53.232;6.556;2023-05-25T05:49:28;102798.72;;;15.69;63.63
29359;BME280;16347;53.232;6.556;2023-05-25T05:51:56;102802.94;;;15.73;63.36
29359;BME280;16347;53.232;6.556;2023-05-25T05:54:25;102802.22;;;15.81;63.36
29359;BME280;16347;53.232;6.556;2023-05-25T05:56:58;102817.91;;;15.79;63.30
29359;BME280;16347;53.232;6.556;2023-05-25T05:59:27;102826.59;;;15.84;63.46
29359;BME280;16347;53.232;6.556;2023-05-25T06:01:55;102829.34;;;15.84;63.40
29359;BME280;16347;53.232;6.556;2023-05-25T06:04:23;102825.72;;;15.74;61.52
29359;BME280;16347;53.232;6.556;2023-05-25T06:06:55;102831.50;;;15.71;60.97
29359;BME280;16347;53.232;6.556;2023-05-25T06:09:24;102838.56;;;15.73;60.74
29359;BME280;16347;53.232;6.556;2023-05-25T06:11:58;102832.81;;;15.76;60.31
29359;BME280;16347;53.232;6.556;2023-05-25T06:14:27;102833.97;;;15.74;59.88
29359;BME280;16347;53.232;6.556;2023-05-25T06:16:58;102834.66;;;15.76;59.24
29359;BME280;16347;53.232;6.556;2023-05-25T06:19:27;102828.78;;;15.71;59.30
29359;BME280;16347;53.232;6.556;2023-05-25T06:21:56;102841.91;;;15.77;58.95
29359;BME280;16347;53.232;6.556;2023-05-25T06:24:24;102847.22;;;15.78;59.03
29359;BME280;16347;53.232;6.556;2023-05-25T06:26:51;102848.53;;;15.84;58.85
29359;BME280;16347;53.232;6.556;2023-05-25T06:29:21;102845.22;;;15.90;58.52
29359;BME280;16347;53.232;6.556;2023-05-25T06:31:49;102845.94;;;15.92;58.04
29359;BME280;16347;53.232;6.556;2023-05-25T06:34:17;102842.31;;;15.82;58.07
29359;BME280;16347;53.232;6.556;2023-05-25T06:36:45;102851.13;;;15.85;57.86
29359;BME280;16347;53.232;6.556;2023-05-25T06:39:14;102845.63;;;15.85;57.94
29359;BME280;16347;53.232;6.556;2023-05-25T06:41:42;102847.81;;;15.82;57.92
29359;BME280;16347;53.232;6.556;2023-05-25T06:44:14;102847.38;;;15.86;58.35
29359;BME280;16347;53.232;6.556;2023-05-25T06:46:47;102854.03;;;15.94;58.28
29359;BME280;16347;53.232;6.556;2023-05-25T06:49:15;102866.47;;;15.88;57.71
29359;BME280;16347;53.232;6.556;2023-05-25T06:51:43;102861.81;;;15.88;58.01
29359;BME280;16347;53.232;6.556;2023-05-25T06:54:11;102863.25;;;15.93;57.90
29359;BME280;16347;53.232;6.556;2023-05-25T06:56:41;102864.44;;;15.80;56.00
29359;BME280;16347;53.232;6.556;2023-05-25T06:59:09;102868.47;;;15.76;55.84
29359;BME280;16347;53.232;6.556;2023-05-25T07:01:37;102865.44;;;15.79;55.49
29359;BME280;16347;53.232;6.556;2023-05-25T07:04:06;102868.16;;;15.79;55.89
29359;BME280;16347;53.232;6.556;2023-05-25T07:06:34;102869.47;;;15.85;56.20
29359;BME280;16347;53.232;6.556;2023-05-25T07:09:02;102884.34;;;15.92;56.10
29359;BME280;16347;53.232;6.556;2023-05-25T07:11:30;102880.72;;;15.72;56.04
29359;BME280;16347;53.232;6.556;2023-05-25T07:13:58;102885.03;;;15.75;56.28
29359;BME280;16347;53.232;6.556;2023-05-25T07:16:26;102883.75;;;15.88;55.19
29359;BME280;16347;53.232;6.556;2023-05-25T07:18:55;102887.66;;;15.96;54.97
29359;BME280;16347;53.232;6.556;2023-05-25T07:21:30;102893.31;;;15.94;53.80
29359;BME280;16347;53.232;6.556;2023-05-25T07:23:59;102894.00;;;16.15;52.15
29359;BME280;16347;53.232;6.556;2023-05-25T07:26:27;102893.44;;;15.93;52.15
29359;BME280;16347;53.232;6.556;2023-05-25T07:28:55;102897.75;;;15.85;52.74
29359;BME280;16347;53.232;6.556;2023-05-25T07:31:23;102899.78;;;15.83;52.90
29359;BME280;16347;53.232;6.556;2023-05-25T07:33:51;102903.13;;;15.97;52.20
29359;BME280;16347;53.232;6.556;2023-05-25T07:36:21;102907.75;;;15.96;51.83
29359;BME280;16347;53.232;6.556;2023-05-25T07:38:51;102901.25;;;16.07;51.60
29359;BME280;16347;53.232;6.556;2023-05-25T07:41:21;102910.75;;;16.12;51.35
29359;BME280;16347;53.232;6.556;2023-05-25T07:43:49;102910.75;;;16.12;50.68
29359;BME280;16347;53.232;6.556;2023-05-25T07:46:17;102912.22;;;16.16;49.76
29359;BME280;16347;53.232;6.556;2023-05-25T07:48:51;102913.69;;;16.11;50.39
29359;BME280;16347;53.232;6.556;2023-05-25T07:51:20;102918.88;;;16.04;50.18
29359;BME280;16347;53.232;6.556;2023-05-25T07:53:48;102920.28;;;15.99;49.47
29359;BME280;16347;53.232;6.556;2023-05-25T07:56:19;102918.28;;;16.01;49.66
29359;BME280;16347;53.232;6.556;2023-05-25T07:58:47;102914.69;;;16.10;49.99
29359;BME280;16347;53.232;6.556;2023-05-25T08:01:16;102914.84;;;16.18;49.98
29359;BME280;16347;53.232;6.556;2023-05-25T08:03:44;102920.91;;;16.21;48.65
29359;BME280;16347;53.232;6.556;2023-05-25T08:06:15;102923.19;;;16.07;47.58
29359;BME280;16347;53.232;6.556;2023-05-25T08:08:43;102926.53;;;15.91;47.25
29359;BME280;16347;53.232;6.556;2023-05-25T08:11:14;102928.94;;;15.75;47.32
29359;BME280;16347;53.232;6.556;2023-05-25T08:13:43;102931.69;;;15.75;48.25
29359;BME280;16347;53.232;6.556;2023-05-25T08:16:11;102948.47;;;15.91;49.52
29359;BME280;16347;53.232;6.556;2023-05-25T08:18:41;102934.59;;;15.93;49.64
29359;BME280;16347;53.232;6.556;2023-05-25T08:21:12;102937.63;;;15.80;49.12
29359;BME280;16347;53.232;6.556;2023-05-25T08:23:40;102938.22;;;15.93;49.50
29359;BME280;16347;53.232;6.556;2023-05-25T08:26:08;102954.25;;;15.98;49.96
29359;BME280;16347;53.232;6.556;2023-05-25T08:28:58;102949.06;;;16.04;49.88
29359;BME280;16347;53.232;6.556;2023-05-25T08:31:28;102955.56;;;16.03;49.31
29359;BME280;16347;53.232;6.556;2023-05-25T08:33:56;102956.84;;;16.09;49.29
29359;BME280;16347;53.232;6.556;2023-05-25T08:36:24;102956.84;;;15.99;49.86
29359;BME280;16347;53.232;6.556;2023-05-25T08:38:52;102953.69;;;16.04;50.06
29359;BME280;16347;53.232;6.556;2023-05-25T08:41:20;102967.09;;;16.16;49.23
29359;BME280;16347;53.232;6.556;2023-05-25T08:43:48;102953.09;;;16.19;49.03
29359;BME280;16347;53.232;6.556;2023-05-25T08:46:27;102959.47;;;16.10;48.69
29359;BME280;16347;53.232;6.556;2023-05-25T08:49:03;102953.25;;;16.08;48.82
29359;BME280;16347;53.232;6.556;2023-05-25T08:51:34;102954.69;;;16.03;49.09
29359;BME280;16347;53.232;6.556;2023-05-25T08:54:06;102964.19;;;15.89;48.74
29359;BME280;16347;53.232;6.556;2023-05-25T08:56:40;102968.56;;;16.01;47.89
29359;BME280;16347;53.232;6.556;2023-05-25T08:59:15;102965.34;;;15.96;47.52
29359;BME280;16347;53.232;6.556;2023-05-25T09:01:50;102957.41;;;16.12;46.88
29359;BME280;16347;53.232;6.556;2023-05-25T09:04:21;102968.16;;;16.25;47.12
29359;BME280;16347;53.232;6.556;2023-05-25T09:06:49;102967.84;;;16.37;47.44
29359;BME280;16347;53.232;6.556;2023-05-25T09:09:20;102966.25;;;16.35;46.35
29359;BME280;16347;53.232;6.556;2023-05-25T09:11:49;102982.41;;;16.28;45.71
29359;BME280;16347;53.232;6.556;2023-05-25T09:14:17;102973.75;;;16.23;45.81
29359;BME280;16347;53.232;6.556;2023-05-25T09:16:47;102970.31;;;16.21;46.83
29359;BME280;16347;53.232;6.556;2023-05-25T09:19:17;102974.34;;;16.17;46.71
29359;BME280;16347;53.232;6.556;2023-05-25T09:21:45;102970.59;;;16.28;46.40
29359;BME280;16347;53.232;6.556;2023-05-25T09:24:13;102972.19;;;16.21;46.42
29359;BME280;16347;53.232;6.556;2023-05-25T09:26:42;102973.63;;;16.25;47.01
29359;BME280;16347;53.232;6.556;2023-05-25T09:29:14;102982.56;;;16.36;47.24
29359;BME280;16347;53.232;6.556;2023-05-25T09:31:43;102975.50;;;16.24;46.78
29359;BME280;16347;53.232;6.556;2023-05-25T09:34:12;102978.25;;;16.24;46.93
29359;BME280;16347;53.232;6.556;2023-05-25T09:36:40;102973.19;;;16.29;47.11
29359;BME280;16347;53.232;6.556;2023-05-25T09:39:09;102981.56;;;16.28;46.82
29359;BME280;16347;53.232;6.556;2023-05-25T09:41:39;102975.94;;;16.10;46.66
29359;BME280;16347;53.232;6.556;2023-05-25T09:44:08;102977.38;;;16.14;47.00
29359;BME280;16347;53.232;6.556;2023-05-25T09:46:37;102983.00;;;16.13;47.86
29359;BME280;16347;53.232;6.556;2023-05-25T09:49:08;102982.13;;;16.12;48.87
29359;BME280;16347;53.232;6.556;2023-05-25T09:51:37;102987.47;;;16.23;49.27
29359;BME280;16347;53.232;6.556;2023-05-25T09:54:08;102977.97;;;16.37;48.95
29359;BME280;16347;53.232;6.556;2023-05-25T09:56:37;102981.69;;;16.46;48.42
29359;BME280;16347;53.232;6.556;2023-05-25T09:59:05;102987.34;;;16.44;47.42
29359;BME280;16347;53.232;6.556;2023-05-25T10:01:33;102981.97;;;16.52;47.43
29359;BME280;16347;53.232;6.556;2023-05-25T10:04:02;102983.31;;;16.58;46.80
29359;BME280;16347;53.232;6.556;2023-05-25T10:06:32;102991.97;;;16.63;47.42
29359;BME280;16347;53.232;6.556;2023-05-25T10:09:02;102983.59;;;16.74;47.58
29359;BME280;16347;53.232;6.556;2023-05-25T10:11:33;102989.19;;;16.91;47.65
29359;BME280;16347;53.232;6.556;2023-05-25T10:14:06;103002.19;;;16.89;46.98
29359;BME280;16347;53.232;6.556;2023-05-25T10:16:35;103007.44;;;16.83;47.06
29359;BME280;16347;53.232;6.556;2023-05-25T10:19:11;103004.69;;;16.83;46.69
29359;BME280;16347;53.232;6.556;2023-05-25T10:21:48;103008.88;;;16.87;47.13
29359;BME280;16347;53.232;6.556;2023-05-25T10:24:23;103005.41;;;16.95;47.04
29359;BME280;16347;53.232;6.556;2023-05-25T10:26:55;103001.50;;;16.87;47.62
29359;BME280;16347;53.232;6.556;2023-05-25T10:29:32;103006.41;;;16.84;45.97
29359;BME280;16347;53.232;6.556;2023-05-25T10:32:02;103002.09;;;16.81;44.74
29359;BME280;16347;53.232;6.556;2023-05-25T10:34:31;103010.03;;;16.94;45.89
29359;BME280;16347;53.232;6.556;2023-05-25T10:37:00;103007.41;;;17.02;46.68
29359;BME280;16347;53.232;6.556;2023-05-25T10:39:32;103019.25;;;17.03;46.51
29359;BME280;16347;53.232;6.556;2023-05-25T10:42:01;103016.78;;;17.00;45.79
29359;BME280;16347;53.232;6.556;2023-05-25T10:44:30;103009.16;;;16.93;44.76
29359;BME280;16347;53.232;6.556;2023-05-25T10:46:58;103012.03;;;17.02;45.11
29359;BME280;16347;53.232;6.556;2023-05-25T10:49:30;103017.53;;;17.02;44.78
29359;BME280;16347;53.232;6.556;2023-05-25T10:52:00;103012.56;;;17.15;45.15
29359;BME280;16347;53.232;6.556;2023-05-25T10:54:30;103004.94;;;17.09;44.64
29359;BME280;16347;53.232;6.556;2023-05-25T10:57:08;103003.63;;;17.03;44.46
29359;BME280;16347;53.232;6.556;2023-05-25T10:59:39;103011.56;;;17.06;44.44
29359;BME280;16347;53.232;6.556;2023-05-25T11:02:07;103002.34;;;16.98;44.06
29359;BME280;16347;53.232;6.556;2023-05-25T11:04:36;103005.09;;;16.98;43.44
29359;BME280;16347;53.232;6.556;2023-05-25T11:07:06;102991.75;;;17.03;43.76
29359;BME280;16347;53.232;6.556;2023-05-25T11:09:42;102989.84;;;17.13;43.49
29359;BME280;16347;53.232;6.556;2023-05-25T11:12:17;103001.97;;;17.20;44.96
29359;BME280;16347;53.232;6.556;2023-05-25T11:15:08;102995.47;;;17.21;44.39
29359;BME280;16347;53.232;6.556;2023-05-25T11:17:44;102995.34;;;17.13;44.64
29359;BME280;16347;53.232;6.556;2023-05-25T11:20:22;102991.81;;;17.30;44.37
29359;BME280;16347;53.232;6.556;2023-05-25T11:22:56;102988.09;;;17.21;45.38
29359;BME280;16347;53.232;6.556;2023-05-25T11:25:41;102994.56;;;17.30;45.42
29359;BME280;16347;53.232;6.556;2023-05-25T11:28:10;102999.50;;;17.26;45.69
29359;BME280;16347;53.232;6.556;2023-05-25T11:30:39;103005.25;;;17.33;45.97
29359;BME280;16347;53.232;6.556;2023-05-25T11:33:08;103003.13;;;17.27;45.91
29359;BME280;16347;53.232;6.556;2023-05-25T11:35:37;103010.88;;;17.41;45.30
29359;BME280;16347;53.232;6.556;2023-05-25T11:38:06;103004.13;;;17.35;44.57
29359;BME280;16347;53.232;6.556;2023-05-25T11:40:34;103002.00;;;17.10;44.65
29359;BME280;16347;53.232;6.556;2023-05-25T11:43:08;102997.78;;;17.16;44.69
29359;BME280;16347;53.232;6.556;2023-05-25T11:45:36;103003.91;;;17.10;44.13
29359;BME280;16347;53.232;6.556;2023-05-25T11:48:05;103001.97;;;17.20;43.78
29359;BME280;16347;53.232;6.556;2023-05-25T11:50:33;102998.09;;;17.22;44.18
29359;BME280;16347;53.232;6.556;2023-05-25T11:53:03;102994.72;;;17.28;42.98
29359;BME280;16347;53.232;6.556;2023-05-25T11:55:32;102994.69;;;17.38;43.31
29359;BME280;16347;53.232;6.556;2023-05-25T11:58:00;102999.13;;;17.49;43.00
29359;BME280;16347;53.232;6.556;2023-05-25T12:00:30;102999.53;;;17.54;43.79
29359;BME280;16347;53.232;6.556;2023-05-25T12:02:58;102994.81;;;17.73;44.70
29359;BME280;16347;53.232;6.556;2023-05-25T12:05:36;102995.25;;;17.78;43.47
29359;BME280;16347;53.232;6.556;2023-05-25T12:08:04;102991.47;;;17.79;42.75
29359;BME280;16347;53.232;6.556;2023-05-25T12:10:32;102987.00;;;17.78;42.90
29359;BME280;16347;53.232;6.556;2023-05-25T12:13:00;102986.31;;;17.94;43.03
29359;BME280;16347;53.232;6.556;2023-05-25T12:15:31;102992.53;;;17.96;42.12
29359;BME280;16347;53.232;6.556;2023-05-25T12:18:00;102990.00;;;17.85;41.64
29359;BME280;16347;53.232;6.556;2023-05-25T12:20:32;102990.78;;;17.95;42.16
29359;BME280;16347;53.232;6.556;2023-05-25T12:23:00;102990.28;;;18.09;41.51
29359;BME280;16347;53.232;6.556;2023-05-25T12:25:29;102995.59;;;18.11;42.07
29359;BME280;16347;53.232;6.556;2023-05-25T12:28:12;102996.50;;;17.84;41.12
29359;BME280;16347;53.232;6.556;2023-05-25T12:30:42;102996.44;;;17.66;42.39
29359;BME280;16347;53.232;6.556;2023-05-25T12:33:12;102979.75;;;17.77;42.38
29359;BME280;16347;53.232;6.556;2023-05-25T12:35:44;102988.41;;;17.82;43.18
29359;BME280;16347;53.232;6.556;2023-05-25T12:38:15;102992.81;;;17.93;42.29
29359;BME280;16347;53.232;6.556;2023-05-25T12:40:44;102981.78;;;18.03;41.24
29359;BME280;16347;53.232;6.556;2023-05-25T12:43:35;102985.84;;;17.99;41.04
29359;BME280;16347;53.232;6.556;2023-05-25T12:46:04;102986.22;;;18.04;41.59
29359;BME280;16347;53.232;6.556;2023-05-25T12:48:33;102986.66;;;18.09;41.70
29359;BME280;16347;53.232;6.556;2023-05-25T12:51:01;102982.41;;;18.32;41.94
29359;BME280;16347;53.232;6.556;2023-05-25T12:53:29;102973.50;;;18.20;41.16
29359;BME280;16347;53.232;6.556;2023-05-25T12:55:59;102977.59;;;18.16;41.24
29359;BME280;16347;53.232;6.556;2023-05-25T12:58:28;102970.03;;;18.18;41.32
29359;BME280;16347;53.232;6.556;2023-05-25T13:00:56;102965.81;;;18.06;41.20
29359;BME280;16347;53.232;6.556;2023-05-25T13:03:25;102965.88;;;18.14;41.04
29359;BME280;16347;53.232;6.556;2023-05-25T13:05:59;102970.38;;;18.15;41.73